Time;durP1;ratioP1;P1;durP2;ratioP2;P2;SDS_P1;SDS_P2;PMS_P1;PMS_P2;Temp;Humidity;BMP_temperature;BMP_pressure;BME280_temperature;BME280_humidity;BME280_pressure;Samples;Min_cycle;Max_cycle;Signal;HPM_P1;HPM_P2
2023/04/11 00:02:11;;;;;;;2.47;1.60;;;17.40;59.80;18.30;100196.00;;;;5030496;28;20182;-58
2023/04/11 00:04:37;;;;;;;1.50;1.40;;;17.30;59.80;18.30;100198.00;;;;5030005;28;20570;-59
2023/04/11 00:07:04;;;;;;;2.10;1.90;;;17.40;59.80;18.30;100203.00;;;;5030467;28;20273;-59
2023/04/11 00:09:30;;;;;;;1.77;1.50;;;17.30;59.80;18.30;100202.00;;;;5012838;28;20630;-58
2023/04/11 00:11:56;;;;;;;1.60;1.50;;;17.30;59.80;18.30;100200.00;;;;5030242;28;20258;-58
2023/04/11 00:14:22;;;;;;;1.93;1.63;;;17.30;59.80;18.30;100203.00;;;;5030138;28;20171;-58
2023/04/11 00:16:48;;;;;;;1.80;1.70;;;17.30;59.70;18.30;100208.00;;;;5030403;28;20232;-59
2023/04/11 00:19:15;;;;;;;2.07;1.70;;;17.30;59.70;18.30;100226.00;;;;5045067;28;20207;-59
2023/04/11 00:21:42;;;;;;;1.50;1.40;;;17.20;59.70;18.20;100212.00;;;;5029408;28;20194;-58
2023/04/11 00:24:08;;;;;;;1.80;1.63;;;17.30;59.80;18.20;100210.00;;;;5030246;28;20268;-59
2023/04/11 00:26:34;;;;;;;1.60;1.50;;;17.30;59.80;18.20;100202.00;;;;5012074;28;20248;-59
2023/04/11 00:29:00;;;;;;;1.83;1.70;;;17.30;59.80;18.20;100191.00;;;;5030341;28;20247;-58
2023/04/11 00:31:25;;;;;;;1.80;1.70;;;17.20;59.60;18.20;100174.00;;;;5030019;28;20637;-58
2023/04/11 00:33:51;;;;;;;1.57;1.47;;;17.20;59.60;18.20;100188.00;;;;5029722;28;20206;-59
2023/04/11 00:36:17;;;;;;;1.40;1.30;;;17.20;59.70;18.20;100191.00;;;;5029664;28;20243;-58
2023/04/11 00:38:43;;;;;;;1.70;1.60;;;17.20;59.70;18.20;100201.00;;;;5029887;28;20186;-58
2023/04/11 00:41:09;;;;;;;1.53;1.43;;;17.20;59.60;18.20;100184.00;;;;5029944;28;20185;-58
2023/04/11 00:43:35;;;;;;;1.67;1.57;;;17.20;59.70;18.20;100192.00;;;;5029774;28;20697;-57
2023/04/11 00:46:02;;;;;;;1.60;1.50;;;17.20;59.70;18.10;100177.00;;;;5029772;28;20196;-58
2023/04/11 00:48:28;;;;;;;2.13;1.60;;;17.20;59.70;18.10;100189.00;;;;5011951;28;20179;-58
2023/04/11 00:50:54;;;;;;;2.60;1.53;;;17.20;59.70;18.10;100198.00;;;;5028457;28;20179;-59
2023/04/11 00:53:20;;;;;;;1.73;1.50;;;17.10;59.60;18.10;100200.00;;;;5029537;28;20794;-58
2023/04/11 00:55:45;;;;;;;2.07;1.47;;;17.10;59.40;17.80;100192.00;;;;5028340;28;20756;-59
2023/04/11 00:58:11;;;;;;;2.23;1.70;;;17.10;59.50;18.00;100214.00;;;;5012471;28;20167;-56
2023/04/11 01:00:37;;;;;;;2.27;1.90;;;17.10;59.50;18.00;100202.00;;;;5028512;28;20497;-58
2023/04/11 01:03:03;;;;;;;2.73;1.83;;;17.10;59.50;17.90;100190.00;;;;5029784;28;20334;-59
2023/04/11 01:05:30;;;;;;;2.03;1.60;;;17.00;59.30;17.90;100190.00;;;;5029622;28;20292;-58
2023/04/11 01:07:55;;;;;;;2.13;1.70;;;17.00;59.40;17.90;100184.00;;;;5028037;28;20182;-58
2023/04/11 01:10:22;;;;;;;1.87;1.57;;;17.00;59.30;17.90;100186.00;;;;5028079;28;20255;-58
2023/04/11 01:12:48;;;;;;;2.73;1.80;;;17.00;59.30;17.90;100185.00;;;;5011254;28;20779;-59
2023/04/11 01:15:14;;;;;;;1.90;1.60;;;17.00;59.30;17.90;100180.00;;;;5027937;28;20242;-59
2023/04/11 01:17:42;;;;;;;1.90;1.70;;;17.00;59.30;17.90;100166.00;;;;5029343;28;20170;-59
2023/04/11 01:20:09;;;;;;;3.33;1.90;;;17.00;59.40;17.90;100179.00;;;;5029332;28;20190;-59
2023/04/11 01:22:36;;;;;;;2.77;1.70;;;17.00;59.30;17.90;100169.00;;;;5027973;28;20181;-58
2023/04/11 01:25:03;;;;;;;3.17;1.97;;;17.00;59.40;17.90;100173.00;;;;5027687;28;20237;-59
2023/04/11 01:27:29;;;;;;;3.67;2.00;;;17.00;59.30;17.80;100172.00;;;;5044554;28;20194;-60
2023/04/11 01:29:55;;;;;;;2.60;1.70;;;16.90;59.30;17.80;100166.00;;;;5028218;28;20537;-58
2023/04/11 01:32:20;;;;;;;2.73;1.90;;;16.90;59.30;17.80;100171.00;;;;5038502;28;20200;-61
2023/04/11 01:34:46;;;;;;;2.60;1.87;;;16.90;59.30;17.80;100172.00;;;;5036383;28;20195;-60
2023/04/11 01:37:12;;;;;;;3.00;1.90;;;16.90;59.30;17.80;100172.00;;;;5013676;28;20284;-58
2023/04/11 01:39:37;;;;;;;3.30;2.07;;;16.90;59.20;17.80;100168.00;;;;5029141;28;20181;-59
2023/04/11 01:42:03;;;;;;;4.20;2.10;;;16.80;59.10;17.70;100161.00;;;;5031187;28;20651;-59
2023/04/11 01:44:31;;;;;;;3.13;2.00;;;16.90;59.10;17.70;100153.00;;;;5028935;28;20613;-59
2023/04/11 01:46:56;;;;;;;2.90;2.00;;;16.90;59.30;17.80;100165.00;;;;5022735;28;20173;-58
2023/04/11 01:49:23;;;;;;;2.33;1.87;;;16.80;59.20;17.80;100151.00;;;;5032499;28;20201;-58
2023/04/11 01:51:49;;;;;;;5.10;2.17;;;16.80;59.30;17.70;100165.00;;;;5011066;28;20172;-59
2023/04/11 01:54:15;;;;;;;2.77;2.07;;;16.80;59.30;17.80;100179.00;;;;5029105;28;20213;-59
2023/04/11 01:56:40;;;;;;;2.97;2.20;;;16.90;59.30;17.70;100171.00;;;;5029149;28;20172;-61
2023/04/11 01:59:06;;;;;;;3.93;2.33;;;16.80;59.10;17.70;100179.00;;;;5028752;28;20257;-59
2023/04/11 02:01:32;;;;;;;4.03;2.50;;;16.80;59.70;17.70;100182.00;;;;5029247;28;20521;-59
2023/04/11 02:03:58;;;;;;;3.60;2.27;;;16.80;59.00;17.60;100183.00;;;;5028994;28;20269;-59
2023/04/11 02:06:26;;;;;;;5.00;2.50;;;16.80;59.10;17.60;100180.00;;;;5028960;28;20205;-60
2023/04/11 02:08:52;;;;;;;4.90;2.50;;;16.70;58.90;17.50;100187.00;;;;5029315;28;20651;-58
2023/04/11 02:11:18;;;;;;;5.13;2.40;;;16.70;58.90;17.50;100187.00;;;;5029111;28;20188;-59
2023/04/11 02:13:44;;;;;;;3.67;2.50;;;16.70;58.70;17.50;100176.00;;;;5028670;28;20289;-62
2023/04/11 02:16:13;;;;;;;5.53;2.67;;;16.60;58.70;17.50;100176.00;;;;5046332;28;20208;-59
2023/04/11 02:18:40;;;;;;;5.17;2.50;;;16.60;58.70;17.50;100175.00;;;;5042834;28;20171;-61
2023/04/11 02:21:06;;;;;;;4.23;2.30;;;16.60;58.90;17.50;100181.00;;;;5037426;28;20272;-59
2023/04/11 02:23:32;;;;;;;4.67;2.47;;;16.60;58.90;17.50;100194.00;;;;5030374;28;20212;-60
2023/04/11 02:25:57;;;;;;;6.00;2.70;;;16.70;59.00;17.50;100193.00;;;;5028712;28;20208;-59
2023/04/11 02:28:23;;;;;;;5.07;2.60;;;16.60;58.80;17.50;100193.00;;;;5029397;28;20181;-60
2023/04/11 02:30:49;;;;;;;4.53;2.50;;;16.60;58.60;17.40;100193.00;;;;5029134;28;20176;-60
2023/04/11 02:33:15;;;;;;;6.40;2.93;;;16.60;59.20;17.40;100185.00;;;;5028680;28;20238;-60
2023/04/11 02:35:42;;;;;;;4.83;2.60;;;16.60;58.70;17.40;100188.00;;;;5029050;28;20218;-58
2023/04/11 02:38:07;;;;;;;3.70;2.40;;;16.60;58.60;17.40;100194.00;;;;5028892;28;20174;-59
2023/04/11 02:40:33;;;;;;;5.40;2.80;;;16.60;58.80;17.40;100189.00;;;;5028887;28;20173;-59
2023/04/11 02:43:00;;;;;;;5.73;2.87;;;16.50;58.40;17.30;100206.00;;;;5031151;28;20177;-58
2023/04/11 02:45:25;;;;;;;7.77;3.30;;;16.50;58.30;17.30;100192.00;;;;5031552;28;20204;-60
2023/04/11 02:47:51;;;;;;;6.90;3.10;;;16.50;58.30;17.30;100197.00;;;;5031532;28;20171;-59
2023/04/11 02:50:17;;;;;;;7.37;3.17;;;16.50;58.30;17.20;100212.00;;;;5031522;28;20236;-59
2023/04/11 02:52:43;;;;;;;6.53;3.20;;;16.40;58.30;17.20;100207.00;;;;5031343;28;20214;-58
2023/04/11 02:55:09;;;;;;;5.47;2.90;;;16.40;58.20;17.20;100222.00;;;;5031360;28;20265;-57
2023/04/11 02:57:34;;;;;;;7.33;3.20;;;16.40;58.30;17.20;100242.00;;;;5030325;28;20758;-58
2023/04/11 03:00:00;;;;;;;6.80;3.10;;;16.40;58.30;17.10;100221.00;;;;5031441;28;20163;-58
2023/04/11 03:02:28;;;;;;;7.77;3.20;;;16.40;58.20;17.20;100230.00;;;;5031399;28;20241;-58
2023/04/11 03:04:54;;;;;;;6.83;3.17;;;16.40;58.30;17.10;100222.00;;;;5031353;28;20215;-59
2023/04/11 03:07:20;;;;;;;6.93;3.47;;;16.40;58.20;17.10;100229.00;;;;5031396;28;20171;-59
2023/04/11 03:09:45;;;;;;;6.17;3.30;;;16.30;58.20;17.10;100237.00;;;;5031477;28;20171;-59
2023/04/11 03:12:11;;;;;;;5.10;2.97;;;16.30;58.20;17.10;100232.00;;;;5031344;28;20233;-58
2023/04/11 03:14:37;;;;;;;7.37;3.33;;;16.30;58.20;17.10;100231.00;;;;5031119;28;20277;-58
2023/04/11 03:17:03;;;;;;;5.97;2.93;;;16.30;58.10;17.00;100238.00;;;;5030877;28;20163;-58
2023/04/11 03:19:28;;;;;;;8.87;2.97;;;16.30;58.00;17.00;100232.00;;;;5030900;28;20178;-58
2023/04/11 03:21:54;;;;;;;7.13;3.23;;;16.30;58.00;17.00;100234.00;;;;5031824;28;20198;-59
2023/04/11 03:24:21;;;;;;;7.53;3.33;;;16.30;58.00;17.00;100239.00;;;;5038923;28;20184;-60
2023/04/11 03:26:46;;;;;;;7.40;3.30;;;16.20;57.90;17.00;100236.00;;;;5037993;28;20182;-58
2023/04/11 03:29:12;;;;;;;12.10;3.70;;;16.20;58.50;17.00;100235.00;;;;5030409;28;20305;-59
2023/04/11 03:31:38;;;;;;;8.17;3.60;;;16.20;58.40;17.00;100233.00;;;;5034482;28;20225;-60
2023/04/11 03:34:06;;;;;;;7.93;3.40;;;16.20;58.30;17.00;100231.00;;;;5028293;28;20224;-58
2023/04/11 03:36:31;;;;;;;10.83;3.90;;;16.20;58.10;17.00;100229.00;;;;5031365;28;20173;-57
2023/04/11 03:38:57;;;;;;;9.30;3.70;;;16.10;57.50;16.90;100227.00;;;;5032371;28;20713;-57
2023/04/11 03:41:23;;;;;;;9.67;4.00;;;16.10;57.40;16.90;100233.00;;;;5033328;28;20197;-58
2023/04/11 03:43:48;;;;;;;11.17;4.07;;;16.10;57.40;16.90;100230.00;;;;5032483;28;20171;-58
2023/04/11 03:46:14;;;;;;;10.33;4.40;;;16.10;57.40;16.80;100236.00;;;;5049824;28;20191;-59
2023/04/11 03:48:40;;;;;;;9.33;3.80;;;16.10;57.40;16.80;100242.00;;;;5034590;28;20267;-57
2023/04/11 03:51:06;;;;;;;8.63;3.60;;;16.10;57.40;16.80;100237.00;;;;5032073;28;20171;-57
2023/04/11 03:53:32;;;;;;;10.03;3.90;;;16.00;57.20;16.80;100254.00;;;;5030156;28;20248;-58
2023/04/11 03:55:58;;;;;;;10.53;4.30;;;16.00;57.00;16.80;100255.00;;;;5031857;28;20229;-57
2023/04/11 03:58:23;;;;;;;10.60;4.00;;;16.00;56.90;16.80;100255.00;;;;5031982;28;20261;-57
2023/04/11 04:00:49;;;;;;;7.80;3.53;;;15.90;56.70;16.70;100257.00;;;;5031659;28;20241;-58
2023/04/11 04:03:15;;;;;;;12.00;4.13;;;15.90;56.90;16.70;100263.00;;;;5031302;28;20175;-58
2023/04/11 04:05:41;;;;;;;10.27;3.80;;;15.90;56.90;16.70;100268.00;;;;5031556;28;20227;-57
2023/04/11 04:08:06;;;;;;;9.67;3.90;;;15.80;56.80;16.70;100268.00;;;;5028618;28;20276;-60
2023/04/11 04:10:32;;;;;;;9.30;3.70;;;15.80;56.80;16.70;100270.00;;;;5025451;28;20186;-58
2023/04/11 04:12:58;;;;;;;7.47;3.40;;;15.80;56.90;16.60;100267.00;;;;5024880;28;20210;-59
2023/04/11 04:15:24;;;;;;;7.77;3.53;;;15.80;57.10;16.60;100253.00;;;;5020704;28;20196;-57
2023/04/11 04:17:52;;;;;;;9.33;3.50;;;15.80;57.20;16.50;100263.00;;;;5011009;28;20784;-58
2023/04/11 04:20:18;;;;;;;6.67;3.47;;;15.80;57.30;16.50;100263.00;;;;5011599;28;20315;-56
2023/04/11 04:22:46;;;;;;;9.83;3.63;;;15.80;57.50;16.50;100265.00;;;;5010662;28;20654;-58
2023/04/11 04:25:14;;;;;;;7.70;3.67;;;15.80;57.50;16.50;100263.00;;;;5009459;28;20219;-57
2023/04/11 04:27:43;;;;;;;10.17;4.00;;;15.70;57.50;16.50;100257.00;;;;5009402;28;20194;-58
2023/04/11 04:30:14;;;;;;;10.30;3.50;;;15.80;57.50;16.50;100266.00;;;;5010928;28;20193;-58
2023/04/11 04:32:43;;;;;;;7.53;3.40;;;15.70;57.60;16.40;100270.00;;;;5009108;28;20278;-57
2023/04/11 04:35:10;;;;;;;6.43;3.30;;;15.80;57.70;16.50;100267.00;;;;5010164;28;20191;-57
2023/04/11 04:37:44;;;;;;;9.77;3.80;;;15.80;57.80;16.50;100262.00;;;;5009834;28;20179;-59
2023/04/11 04:40:12;;;;;;;7.83;3.30;;;15.70;57.80;16.40;100264.00;;;;5010913;28;20256;-58
2023/04/11 04:42:40;;;;;;;5.97;3.17;;;15.70;57.80;16.40;100288.00;;;;4992532;28;20175;-58
2023/04/11 04:45:07;;;;;;;6.80;3.00;;;15.70;57.80;16.40;100267.00;;;;5008925;28;20286;-57
2023/04/11 04:47:34;;;;;;;6.97;3.20;;;15.70;57.80;16.40;100288.00;;;;4991004;28;20720;-57
2023/04/11 04:50:00;;;;;;;6.97;3.20;;;15.70;57.90;16.40;100283.00;;;;5010948;28;20174;-57
2023/04/11 04:52:27;;;;;;;7.50;3.40;;;15.70;57.90;16.40;100291.00;;;;5010494;28;20833;-57
2023/04/11 04:54:56;;;;;;;8.43;3.50;;;15.70;57.90;16.40;100295.00;;;;5010044;28;20663;-57
2023/04/11 04:57:26;;;;;;;7.73;3.37;;;15.70;57.90;16.40;100290.00;;;;5010318;28;20171;-58
2023/04/11 04:59:52;;;;;;;6.43;3.17;;;15.70;57.80;16.30;100293.00;;;;5009425;28;20541;-59
2023/04/11 05:02:18;;;;;;;7.83;3.30;;;15.60;57.70;16.30;100300.00;;;;5009164;28;20230;-58
2023/04/11 05:04:44;;;;;;;7.47;3.20;;;15.70;57.80;16.30;100299.00;;;;5009844;28;20210;-58
2023/04/11 05:07:12;;;;;;;7.93;3.23;;;15.60;57.70;16.30;100275.00;;;;5009355;28;20258;-57
2023/04/11 05:09:38;;;;;;;10.20;3.40;;;15.60;57.90;16.40;100297.00;;;;5010246;28;20646;-57
2023/04/11 05:12:04;;;;;;;8.57;3.30;;;15.70;58.10;16.40;100305.00;;;;5008835;28;20179;-59
2023/04/11 05:14:30;;;;;;;6.40;2.90;;;15.70;58.10;16.50;100320.00;;;;5009203;28;20191;-59
2023/04/11 05:16:55;;;;;;;8.10;3.47;;;15.70;58.20;16.50;100301.00;;;;5009898;28;20164;-61
2023/04/11 05:19:21;;;;;;;7.83;3.20;;;15.80;58.20;16.50;100310.00;;;;5008755;28;20175;-57
2023/04/11 05:21:47;;;;;;;6.93;3.23;;;15.80;58.20;16.60;100318.00;;;;5008933;28;20179;-57
2023/04/11 05:24:13;;;;;;;7.20;3.33;;;15.80;58.20;16.60;100322.00;;;;5010945;28;20593;-58
2023/04/11 05:26:38;;;;;;;6.23;3.17;;;15.80;58.20;16.60;100311.00;;;;5009026;28;20187;-57
2023/04/11 05:29:05;;;;;;;5.80;3.10;;;15.80;58.20;16.60;100314.00;;;;5014480;28;20238;-58
2023/04/11 05:31:31;;;;;;;6.63;3.23;;;15.80;58.30;16.60;100318.00;;;;5015620;28;20183;-59
2023/04/11 05:33:57;;;;;;;6.50;2.90;;;15.80;58.30;16.60;100315.00;;;;5010210;28;20680;-58
2023/04/11 05:36:24;;;;;;;6.40;3.13;;;15.80;58.30;16.60;100312.00;;;;5011860;28;20223;-57
2023/04/11 05:38:49;;;;;;;6.63;2.93;;;15.80;58.50;16.60;100322.00;;;;5010775;28;20711;-58
2023/04/11 05:41:15;;;;;;;5.30;2.70;;;15.80;58.50;16.60;100333.00;;;;5012307;28;20183;-57
2023/04/11 05:43:41;;;;;;;5.97;3.00;;;15.80;58.50;16.60;100324.00;;;;5019898;28;20180;-57
2023/04/11 05:46:08;;;;;;;5.53;2.77;;;15.80;58.50;16.60;100336.00;;;;5013402;28;20225;-57
2023/04/11 05:48:34;;;;;;;4.57;2.63;;;15.80;58.50;16.60;100340.00;;;;5008743;28;20180;-57
2023/04/11 05:50:59;;;;;;;5.23;2.70;;;15.80;58.50;16.60;100344.00;;;;5009108;28;20176;-56
2023/04/11 05:53:25;;;;;;;4.33;2.90;;;15.70;58.50;16.60;100353.00;;;;5009362;28;20203;-59
2023/04/11 05:55:51;;;;;;;6.23;3.00;;;15.80;58.60;16.60;100348.00;;;;5008992;28;20234;-57
2023/04/11 05:58:17;;;;;;;4.87;2.67;;;15.80;58.60;16.60;100360.00;;;;5010517;28;20175;-56
2023/04/11 06:00:44;;;;;;;4.87;2.63;;;15.80;58.60;16.60;100354.00;;;;5010426;28;20168;-57
2023/04/11 06:03:10;;;;;;;4.33;2.40;;;15.70;58.50;16.60;100357.00;;;;5010157;28;20182;-56
2023/04/11 06:05:36;;;;;;;5.40;2.87;;;15.70;58.50;16.60;100366.00;;;;5010130;28;20200;-58
2023/04/11 06:08:03;;;;;;;4.10;2.60;;;15.80;58.60;16.60;100368.00;;;;5010006;28;20176;-59
2023/04/11 06:10:29;;;;;;;5.80;3.10;;;15.70;58.60;16.60;100370.00;;;;5008950;28;20549;-56
2023/04/11 06:12:55;;;;;;;3.07;2.40;;;15.80;58.70;16.60;100375.00;;;;5009431;28;20203;-57
2023/04/11 06:15:24;;;;;;;4.60;2.60;;;15.80;58.70;16.60;100369.00;;;;5009617;28;20191;-57
2023/04/11 06:17:50;;;;;;;4.17;2.53;;;15.70;58.70;16.60;100375.00;;;;5013120;28;20176;-57
2023/04/11 06:20:16;;;;;;;4.10;2.57;;;15.70;58.70;16.60;100383.00;;;;5013633;28;20558;-56
2023/04/11 06:22:42;;;;;;;4.00;2.50;;;15.70;58.70;16.60;100390.00;;;;5013612;28;20176;-56
2023/04/11 06:25:09;;;;;;;3.73;2.50;;;15.70;58.70;16.60;100387.00;;;;5013225;28;20203;-56
2023/04/11 06:27:34;;;;;;;3.00;2.37;;;15.70;58.70;16.60;100399.00;;;;5013425;28;20290;-57
2023/04/11 06:30:00;;;;;;;4.43;2.43;;;15.70;58.70;16.60;100410.00;;;;5013336;28;20258;-55
2023/04/11 06:32:26;;;;;;;4.10;2.63;;;15.70;58.70;16.60;100407.00;;;;5013556;28;20207;-58
2023/04/11 06:34:52;;;;;;;3.77;2.40;;;15.70;58.70;16.60;100410.00;;;;5013525;28;20342;-57
2023/04/11 06:37:18;;;;;;;5.30;2.60;;;15.70;58.80;16.60;100409.00;;;;5013440;28;20172;-57
2023/04/11 06:39:44;;;;;;;3.47;2.23;;;15.70;58.80;16.60;100419.00;;;;5013581;28;20172;-57
2023/04/11 06:42:09;;;;;;;4.27;2.53;;;15.70;58.80;16.60;100425.00;;;;5013148;28;20234;-58
2023/04/11 06:44:35;;;;;;;3.97;2.40;;;15.70;58.80;16.60;100417.00;;;;5013206;28;20200;-58
2023/04/11 06:47:01;;;;;;;4.33;2.70;;;15.70;58.80;16.60;100424.00;;;;5013328;28;20350;-58
2023/04/11 06:49:27;;;;;;;3.53;2.40;;;15.70;58.90;16.60;100425.00;;;;5012397;28;20254;-59
2023/04/11 06:51:54;;;;;;;4.60;2.53;;;15.70;58.90;16.60;100427.00;;;;5027696;28;20688;-58
2023/04/11 06:54:20;;;;;;;3.50;2.77;;;15.70;58.90;16.50;100428.00;;;;5031065;28;20712;-58
2023/04/11 06:56:46;;;;;;;4.80;2.30;;;15.70;58.90;16.60;100433.00;;;;5032455;28;20179;-58
2023/04/11 06:59:12;;;;;;;4.53;2.50;;;15.70;58.90;16.50;100411.00;;;;5026633;28;20262;-59
2023/04/11 07:01:38;;;;;;;4.03;2.13;;;15.70;58.90;16.50;100433.00;;;;5030751;28;20194;-58
2023/04/11 07:04:05;;;;;;;3.23;2.23;;;15.70;58.90;16.50;100428.00;;;;5030479;28;20175;-58
2023/04/11 07:06:31;;;;;;;4.97;2.53;;;15.70;58.90;16.60;100435.00;;;;5031254;28;20195;-59
2023/04/11 07:08:59;;;;;;;3.07;2.33;;;15.70;58.90;16.50;100444.00;;;;5030842;28;20178;-57
2023/04/11 07:11:25;;;;;;;3.40;2.27;;;15.70;59.00;16.50;100448.00;;;;5031506;28;20175;-58
2023/04/11 07:13:51;;;;;;;3.90;2.40;;;15.70;59.10;16.50;100437.00;;;;5030649;28;20207;-59
2023/04/11 07:16:17;;;;;;;3.47;2.10;;;15.70;59.10;16.50;100447.00;;;;5031172;28;20290;-59
2023/04/11 07:18:43;;;;;;;3.70;2.60;;;15.70;59.10;16.50;100443.00;;;;5021036;28;20543;-59
2023/04/11 07:21:12;;;;;;;4.90;2.47;;;15.60;59.60;16.50;100447.00;;;;5017363;28;20184;-59
2023/04/11 07:23:39;;;;;;;2.67;2.00;;;15.70;59.10;16.50;100453.00;;;;5010733;28;20207;-60
2023/04/11 07:26:07;;;;;;;3.63;2.50;;;15.70;59.10;16.50;100454.00;;;;5013364;28;20211;-59
2023/04/11 07:28:36;;;;;;;3.43;2.30;;;15.70;59.10;16.50;100455.00;;;;5029954;28;20192;-60
2023/04/11 07:31:03;;;;;;;2.73;2.00;;;15.60;59.00;16.50;100466.00;;;;5018566;28;20179;-60
2023/04/11 07:33:28;;;;;;;3.60;2.20;;;15.60;59.00;16.50;100467.00;;;;5019679;28;20258;-62
2023/04/11 07:35:54;;;;;;;4.50;2.50;;;15.70;59.10;16.50;100464.00;;;;5018279;28;20202;-59
2023/04/11 07:38:28;;;;;;;4.17;2.50;;;15.60;59.10;16.50;100463.00;;;;5019608;28;20238;-58
2023/04/11 07:40:55;;;;;;;3.07;2.20;;;15.60;59.10;16.20;100475.00;;;;5035382;28;20163;-60
2023/04/11 07:43:21;;;;;;;3.93;2.30;;;15.60;59.40;16.50;100466.00;;;;5045915;28;20533;-58
2023/04/11 07:45:47;;;;;;;3.30;2.27;;;15.60;59.40;16.50;100476.00;;;;5030852;28;20265;-59
2023/04/11 07:48:13;;;;;;;4.23;2.40;;;15.60;59.40;16.50;100469.00;;;;5031392;28;20183;-58
2023/04/11 07:50:38;;;;;;;3.37;2.27;;;15.60;59.50;16.50;100475.00;;;;5031544;28;20179;-59
2023/04/11 07:53:04;;;;;;;4.00;2.43;;;15.60;59.90;16.50;100477.00;;;;5032772;28;20214;-59
2023/04/11 07:55:30;;;;;;;3.07;2.30;;;15.60;60.60;16.50;100485.00;;;;5020114;28;20330;-56
2023/04/11 07:57:56;;;;;;;4.53;2.57;;;15.70;61.00;16.50;100473.00;;;;5031110;28;20214;-58
2023/04/11 08:00:22;;;;;;;6.17;2.70;;;15.70;60.90;16.50;100481.00;;;;5031056;28;20171;-58
2023/04/11 08:02:48;;;;;;;4.03;2.47;;;15.80;61.10;16.60;100496.00;;;;5031186;28;20669;-58
2023/04/11 08:05:14;;;;;;;3.53;2.37;;;15.80;60.90;16.60;100482.00;;;;5031172;28;20198;-58
2023/04/11 08:07:40;;;;;;;4.13;2.37;;;15.90;60.80;16.70;100481.00;;;;5029883;28;20187;-57
2023/04/11 08:10:07;;;;;;;3.30;2.20;;;16.00;60.60;16.70;100495.00;;;;5031132;28;20262;-58
2023/04/11 08:12:32;;;;;;;2.77;2.20;;;16.10;60.40;16.80;100489.00;;;;5030955;28;20627;-58
2023/04/11 08:14:59;;;;;;;2.50;2.00;;;16.20;60.30;16.90;100482.00;;;;5030645;28;20252;-57
2023/04/11 08:17:27;;;;;;;3.13;2.30;;;16.30;60.10;17.00;100484.00;;;;5031034;28;20179;-58
2023/04/11 08:19:56;;;;;;;3.33;2.30;;;16.40;60.10;17.10;100499.00;;;;5031112;28;20646;-57
2023/04/11 08:22:22;;;;;;;3.23;2.20;;;16.60;60.10;17.10;100490.00;;;;5031001;28;20553;-59
2023/04/11 08:24:48;;;;;;;6.37;2.10;;;16.80;60.00;17.30;100505.00;;;;5029919;28;20211;-59
2023/04/11 08:27:13;;;;;;;4.10;2.10;;;16.90;60.10;17.40;100512.00;;;;5030082;28;20698;-57
2023/04/11 08:29:39;;;;;;;5.57;1.90;;;17.00;60.00;17.50;100507.00;;;;5030702;28;20183;-56
2023/04/11 08:32:05;;;;;;;3.03;2.07;;;17.10;59.90;17.60;100502.00;;;;5020427;28;20190;-55
2023/04/11 08:34:32;;;;;;;3.90;2.20;;;17.20;59.80;17.70;100503.00;;;;5019287;28;20419;-55
2023/04/11 08:36:58;;;;;;;6.60;2.23;;;17.30;59.80;17.80;100508.00;;;;5018261;28;20184;-55
2023/04/11 08:39:24;;;;;;;3.63;2.00;;;17.40;59.80;17.80;100507.00;;;;5017892;28;20176;-55
2023/04/11 08:41:50;;;;;;;4.73;2.20;;;17.50;59.70;17.90;100508.00;;;;5019108;28;20231;-57
2023/04/11 08:44:16;;;;;;;3.00;2.13;;;17.60;59.80;18.00;100511.00;;;;5017745;28;20192;-55
2023/04/11 08:46:42;;;;;;;3.33;2.00;;;17.70;60.00;18.00;100519.00;;;;5021690;28;20261;-56
2023/04/11 08:49:08;;;;;;;4.87;2.20;;;17.70;60.20;18.10;100508.00;;;;5018647;28;20220;-56
2023/04/11 08:51:33;;;;;;;3.73;2.23;;;17.70;60.10;18.20;100514.00;;;;5020494;28;20278;-56
2023/04/11 08:54:04;;;;;;;3.37;1.83;;;17.80;60.20;18.20;100512.00;;;;5021211;28;20208;-55
2023/04/11 08:56:30;;;;;;;2.80;1.73;;;17.80;60.10;18.30;100520.00;;;;5028547;28;20256;-56
2023/04/11 08:58:56;;;;;;;4.87;2.20;;;17.80;60.10;18.30;100516.00;;;;5030355;28;20183;-56
2023/04/11 09:01:31;;;;;;;2.20;1.70;;;17.90;60.00;18.40;100522.00;;;;5029362;28;20684;-57
2023/04/11 09:04:03;;;;;;;4.00;2.20;;;17.90;60.00;18.40;100527.00;;;;5029987;28;20185;-57
2023/04/11 09:06:31;;;;;;;2.30;1.93;;;17.90;60.00;18.40;100528.00;;;;5029504;28;20237;-56
2023/04/11 09:09:04;;;;;;;3.30;1.80;;;17.90;60.00;18.50;100525.00;;;;5030026;28;20189;-56
2023/04/11 09:11:29;;;;;;;2.67;1.57;;;17.90;60.00;18.50;100514.00;;;;5029988;28;20209;-57
2023/04/11 09:14:08;;;;;;;2.60;1.80;;;17.90;59.90;18.50;100514.00;;;;5021086;28;20240;-58
2023/04/11 09:16:35;;;;;;;2.17;1.80;;;18.00;59.80;18.50;100521.00;;;;5029430;28;20214;-55
2023/04/11 09:19:00;;;;;;;3.80;1.80;;;18.00;59.80;18.60;100534.00;;;;5028642;28;20181;-56
2023/04/11 09:21:30;;;;;;;2.83;2.00;;;18.00;59.90;18.60;100527.00;;;;5030079;28;20247;-56
2023/04/11 09:24:14;;;;;;;1.70;1.60;;;18.00;59.80;18.60;100518.00;;;;5028579;28;20190;-55
2023/04/11 09:26:40;;;;;;;2.60;1.90;;;18.10;59.80;18.60;100503.00;;;;5031434;28;20248;-56
2023/04/11 09:29:06;;;;;;;3.10;2.00;;;18.00;59.70;18.60;100512.00;;;;5042720;28;20194;-57
2023/04/11 09:31:43;;;;;;;3.17;1.80;;;18.10;60.10;18.70;100509.00;;;;5030296;28;20186;-55
2023/04/11 09:34:10;;;;;;;2.20;1.90;;;18.10;60.10;18.70;100511.00;;;;5029534;28;20209;-58
2023/04/11 09:36:36;;;;;;;6.23;1.83;;;18.00;60.20;18.70;100499.00;;;;5029659;28;20179;-56
2023/04/11 09:39:17;;;;;;;3.37;1.93;;;18.10;60.10;18.70;100516.00;;;;5029596;28;20869;-57
2023/04/11 09:41:43;;;;;;;5.23;1.80;;;18.10;60.10;18.70;100524.00;;;;5028479;28;20676;-56
2023/04/11 09:44:09;;;;;;;2.53;1.90;;;18.10;60.10;18.70;100517.00;;;;5046511;28;20261;-56
2023/04/11 09:46:36;;;;;;;7.67;2.10;;;18.10;60.10;18.70;100521.00;;;;5034210;28;20189;-56
2023/04/11 09:49:02;;;;;;;10.00;2.63;;;18.10;60.20;18.80;100505.00;;;;5029720;28;20205;-56
2023/04/11 09:51:28;;;;;;;7.63;2.20;;;18.10;60.50;18.80;100518.00;;;;5031368;28;20210;-57
2023/04/11 09:53:54;;;;;;;9.33;2.20;;;18.10;60.50;18.80;100525.00;;;;5032832;28;20245;-56
2023/04/11 09:56:20;;;;;;;4.93;1.80;;;18.20;60.50;18.80;100515.00;;;;5028785;28;20202;-55
2023/04/11 09:58:46;;;;;;;11.40;2.27;;;18.10;60.40;18.80;100510.00;;;;5031721;28;20236;-56
2023/04/11 10:01:12;;;;;;;7.43;2.20;;;18.10;60.60;18.80;100527.00;;;;5015927;28;20183;-58
2023/04/11 10:03:38;;;;;;;4.63;2.00;;;18.20;60.80;18.80;100528.00;;;;5031959;28;20187;-57
2023/04/11 10:06:21;;;;;;;7.20;2.13;;;18.20;60.90;18.80;100514.00;;;;5033560;28;20210;-56
2023/04/11 10:08:47;;;;;;;7.03;2.30;;;18.20;60.80;18.90;100516.00;;;;5031619;28;20553;-56
2023/04/11 10:11:13;;;;;;;3.33;2.03;;;18.20;60.80;18.90;100513.00;;;;5030930;28;20176;-57
2023/04/11 10:13:45;;;;;;;5.63;2.00;;;18.20;60.80;18.90;100520.00;;;;5029789;28;20203;-56
2023/04/11 10:16:14;;;;;;;5.23;2.00;;;18.20;61.20;18.90;100529.00;;;;5031051;28;20685;-55
2023/04/11 10:18:52;;;;;;;4.97;1.97;;;18.20;60.40;18.90;100524.00;;;;5033180;28;20187;-56
2023/04/11 10:21:33;;;;;;;5.07;2.23;;;18.20;60.40;18.90;100531.00;;;;5030481;28;20815;-58
2023/04/11 10:24:15;;;;;;;3.70;1.90;;;18.20;60.40;18.90;100536.00;;;;5035135;28;20202;-57
2023/04/11 10:26:48;;;;;;;3.40;1.90;;;18.20;60.30;18.90;100532.00;;;;5030987;28;20237;-57
2023/04/11 10:29:29;;;;;;;4.50;2.00;;;18.20;60.30;18.90;100533.00;;;;5029732;28;20199;-56
2023/04/11 10:32:16;;;;;;;5.93;2.20;;;18.20;60.30;18.90;100532.00;;;;5026811;28;20186;-57
2023/04/11 10:34:54;;;;;;;3.43;2.00;;;18.20;60.40;18.90;100546.00;;;;5033388;28;20771;-55
2023/04/11 10:37:29;;;;;;;3.27;1.67;;;18.20;60.60;19.00;100544.00;;;;5023625;28;20179;-58
2023/04/11 10:40:00;;;;;;;4.13;1.77;;;18.20;60.70;19.00;100555.00;;;;5032216;28;20211;-57
2023/04/11 10:42:33;;;;;;;3.23;1.90;;;18.30;61.10;19.00;100557.00;;;;5033091;28;20183;-57
2023/04/11 10:45:25;;;;;;;2.63;1.60;;;18.20;60.80;19.00;100548.00;;;;5033016;28;20207;-57
2023/04/11 10:47:50;;;;;;;3.77;1.80;;;18.30;60.90;19.00;100558.00;;;;5032247;28;20182;-57